createdAt,value
2019-04-10T00:01:25.670Z,26.87
2019-04-10T00:03:55.128Z,28.40
2019-04-10T00:06:25.741Z,27.47
2019-04-10T00:08:55.462Z,26.87
2019-04-10T00:11:25.158Z,27.63
2019-04-10T00:13:55.321Z,27.77
2019-04-10T00:16:24.799Z,27.97
2019-04-10T00:18:54.493Z,27.00
2019-04-10T00:21:25.092Z,27.23
2019-04-10T00:23:55.575Z,27.93
2019-04-10T00:26:25.778Z,26.13
2019-04-10T00:28:56.054Z,27.93
2019-04-10T00:31:26.342Z,27.07
2019-04-10T00:33:57.252Z,28.80
2019-04-10T00:36:27.476Z,27.17
2019-04-10T00:38:57.995Z,27.47
2019-04-10T00:41:28.402Z,26.93
2019-04-10T00:43:59.355Z,27.17
2019-04-10T00:46:29.074Z,27.60
2019-04-10T00:48:58.694Z,26.97
2019-04-10T00:51:28.562Z,27.32
2019-04-10T00:53:59.342Z,26.50
2019-04-10T00:56:28.754Z,28.57
2019-04-10T00:58:59.549Z,26.75
2019-04-10T01:01:29.861Z,26.82
2019-04-10T01:04:00.223Z,27.77
2019-04-10T01:06:30.416Z,29.02
2019-04-10T01:08:59.972Z,26.87
2019-04-10T01:11:30.747Z,28.07
2019-04-10T01:14:01.156Z,27.47
2019-04-10T01:16:31.358Z,26.90
2019-04-10T01:19:01.728Z,28.07
2019-04-10T01:21:31.170Z,28.03
2019-04-10T01:24:01.430Z,27.03
2019-04-10T01:26:31.621Z,26.90
2019-04-10T01:29:01.395Z,24.80
2019-04-10T01:31:30.993Z,25.43
2019-04-10T01:34:01.048Z,25.17
2019-04-10T01:36:31.138Z,22.77
2019-04-10T01:39:00.712Z,24.97
2019-04-10T01:41:30.083Z,25.27
2019-04-10T01:43:59.459Z,25.17
2019-04-10T01:46:28.838Z,23.77
2019-04-10T01:48:58.216Z,23.87
2019-04-10T01:51:27.595Z,24.37
2019-04-10T01:53:56.973Z,23.57
2019-04-10T01:56:31.674Z,22.97
2019-04-10T01:58:57.450Z,20.63
2019-04-10T02:01:32.488Z,24.03
2019-04-10T02:04:02.641Z,23.13
2019-04-10T02:06:32.078Z,22.37
2019-04-10T02:09:02.567Z,24.63
2019-04-10T02:11:32.268Z,24.27
2019-04-10T02:14:01.768Z,24.70
2019-04-10T02:16:31.127Z,23.43
2019-04-10T02:19:01.634Z,23.83
2019-04-10T02:21:31.816Z,23.23
2019-04-10T02:24:01.218Z,22.27
2019-04-10T02:26:31.559Z,22.48
2019-04-10T02:29:01.717Z,23.30
2019-04-10T02:31:32.001Z,22.40
2019-04-10T02:34:01.776Z,23.67
2019-04-10T02:36:31.666Z,22.70
2019-04-10T02:39:13.462Z,21.53
2019-04-10T02:41:34.471Z,22.60
2019-04-10T02:44:04.855Z,23.53
2019-04-10T02:46:34.870Z,23.30
2019-04-10T02:49:06.000Z,22.22
2019-04-10T02:51:35.895Z,22.77
2019-04-10T02:54:05.822Z,22.30
2019-04-10T02:56:36.528Z,22.50
2019-04-10T02:59:07.413Z,20.90
2019-04-10T03:01:37.950Z,22.77
2019-04-10T03:04:09.042Z,21.50
2019-04-10T03:06:39.521Z,20.57
2019-04-10T03:09:26.042Z,21.07
2019-04-10T03:11:41.975Z,22.47
2019-04-10T03:14:12.527Z,22.13
2019-04-10T03:16:42.327Z,21.63
2019-04-10T03:19:11.731Z,21.13
2019-04-10T03:21:41.089Z,19.60
2019-04-10T03:24:10.519Z,21.93
2019-04-10T03:26:39.875Z,20.37
2019-04-10T03:29:09.265Z,19.40
2019-04-10T03:31:41.259Z,21.47
2019-04-10T03:34:16.807Z,20.17
2019-04-10T03:36:47.514Z,20.87
2019-04-10T03:39:17.418Z,20.00
2019-04-10T03:41:46.821Z,19.90
2019-04-10T03:44:16.709Z,20.80
2019-04-10T03:46:46.962Z,19.67
2019-04-10T03:49:16.592Z,20.27
2019-04-10T03:51:47.025Z,22.13
2019-04-10T03:54:16.420Z,19.47
2019-04-10T03:56:45.785Z,20.95
2019-04-10T03:59:15.894Z,21.42
2019-04-10T04:01:45.324Z,20.45
2019-04-10T04:04:15.451Z,19.80
2019-04-10T04:06:45.986Z,19.73
2019-04-10T04:09:16.223Z,17.23
2019-04-10T04:11:46.151Z,19.07
2019-04-10T04:14:16.459Z,17.90
2019-04-10T04:16:46.829Z,20.70
2019-04-10T04:19:17.635Z,20.53
2019-04-10T04:21:48.079Z,20.20
2019-04-10T04:24:17.914Z,19.43
2019-04-10T04:26:48.689Z,18.73
2019-04-10T04:29:18.492Z,19.63
2019-04-10T04:31:48.524Z,17.53
2019-04-10T04:34:18.654Z,18.63
2019-04-10T04:36:49.127Z,18.23
2019-04-10T04:39:25.693Z,18.83
2019-04-10T04:41:50.113Z,17.40
2019-04-10T04:44:20.266Z,18.30
2019-04-10T04:46:50.602Z,18.35
2019-04-10T04:49:20.640Z,18.43
2019-04-10T04:51:50.568Z,17.80
2019-04-10T04:54:21.328Z,17.97
2019-04-10T04:56:50.715Z,18.63
2019-04-10T04:59:20.553Z,18.23
2019-04-10T05:01:50.057Z,17.83
2019-04-10T05:04:19.464Z,18.60
2019-04-10T05:06:49.857Z,18.32
2019-04-10T05:09:30.383Z,18.20
2019-04-10T05:11:51.046Z,17.53
2019-04-10T05:14:21.592Z,16.02
2019-04-10T05:16:52.063Z,16.97
2019-04-10T05:19:21.567Z,17.40
2019-04-10T05:21:51.928Z,18.10
2019-04-10T05:24:22.016Z,16.27
2019-04-10T05:26:51.464Z,17.27
2019-04-10T05:29:21.660Z,16.97
2019-04-10T05:31:51.534Z,16.77
2019-04-10T05:34:21.894Z,15.97
2019-04-10T05:36:51.770Z,16.50
2019-04-10T05:39:22.344Z,16.73
2019-04-10T05:41:52.106Z,17.60
2019-04-10T05:44:21.458Z,16.37
2019-04-10T05:46:50.839Z,16.10
2019-04-10T05:49:20.666Z,17.23
2019-04-10T05:51:50.179Z,16.57
2019-04-10T05:54:20.669Z,16.77
2019-04-10T05:56:50.939Z,15.90
2019-04-10T05:59:20.300Z,15.73
2019-04-10T06:01:50.566Z,16.70
2019-04-10T06:04:20.877Z,15.33
2019-04-10T06:06:50.629Z,17.17
2019-04-10T06:09:20.586Z,16.00
2019-04-10T06:11:50.075Z,16.07
2019-04-10T06:14:19.431Z,16.63
2019-04-10T06:16:49.252Z,16.10
2019-04-10T06:19:19.988Z,16.90
2019-04-10T06:21:50.396Z,15.68
2019-04-10T06:24:20.408Z,15.23
2019-04-10T06:26:50.136Z,15.03
2019-04-10T06:29:19.616Z,16.50
2019-04-10T06:31:49.370Z,14.80
2019-04-10T06:34:18.983Z,14.30
2019-04-10T06:36:49.441Z,15.67
2019-04-10T06:39:18.821Z,14.35
2019-04-10T06:41:48.758Z,14.10
2019-04-10T06:44:19.291Z,14.83
2019-04-10T06:46:49.106Z,15.78
2019-04-10T06:49:18.684Z,14.93
2019-04-10T06:51:48.124Z,14.53
2019-04-10T06:54:17.500Z,14.90
2019-04-10T06:56:48.545Z,15.20
2019-04-10T06:59:18.366Z,14.60
2019-04-10T07:01:52.600Z,13.70
2019-04-10T07:04:21.948Z,13.97
2019-04-10T07:06:58.719Z,14.57
2019-04-10T07:09:25.194Z,14.57
2019-04-10T07:11:58.512Z,13.73
2019-04-10T07:14:25.131Z,14.60
2019-04-10T07:16:54.968Z,14.27
2019-04-10T07:19:24.520Z,13.53
2019-04-10T07:21:53.894Z,13.90
2019-04-10T07:24:23.514Z,14.77
2019-04-10T07:26:53.352Z,14.57
2019-04-10T07:29:26.643Z,14.40
2019-04-10T07:31:54.980Z,15.00
2019-04-10T07:34:26.951Z,15.77
2019-04-10T07:36:56.059Z,15.37
2019-04-10T07:39:28.093Z,14.77
2019-04-10T07:41:57.732Z,15.30
2019-04-10T07:44:27.190Z,15.93
2019-04-10T07:46:59.067Z,14.77
2019-04-10T07:49:31.060Z,15.40
2019-04-10T07:51:59.046Z,15.83
2019-04-10T07:54:28.855Z,15.60
2019-04-10T07:56:58.228Z,14.87
2019-04-10T07:59:27.610Z,15.90
2019-04-10T08:01:58.008Z,16.90
2019-04-10T08:04:27.432Z,14.67
2019-04-10T08:06:56.834Z,15.70
2019-04-10T08:09:26.877Z,14.80
2019-04-10T08:11:56.747Z,15.63
2019-04-10T08:14:27.432Z,15.53
2019-04-10T08:16:57.418Z,15.97
2019-04-10T08:19:28.180Z,15.55
2019-04-10T08:21:57.989Z,15.93
2019-04-10T08:24:28.040Z,15.93
2019-04-10T08:26:57.520Z,16.20
2019-04-10T08:29:27.037Z,15.90
2019-04-10T08:31:56.894Z,15.83
2019-04-10T08:34:26.258Z,15.73
2019-04-10T08:36:56.820Z,14.53
2019-04-10T08:39:33.920Z,15.57
2019-04-10T08:41:57.909Z,15.20
2019-04-10T08:44:27.795Z,16.13
2019-04-10T08:46:58.161Z,15.03
2019-04-10T08:49:28.306Z,15.67
2019-04-10T08:51:57.929Z,16.63
2019-04-10T08:54:28.131Z,16.87
2019-04-10T08:56:57.606Z,15.80
2019-04-10T08:59:27.799Z,15.87
2019-04-10T09:01:57.751Z,13.32
2019-04-10T09:04:28.748Z,14.53
2019-04-10T09:07:00.957Z,16.13
2019-04-10T09:09:29.935Z,15.13
2019-04-10T09:11:59.826Z,15.73
2019-04-10T09:14:29.624Z,17.00
2019-04-10T09:16:59.166Z,16.50
2019-04-10T09:19:29.990Z,16.23
2019-04-10T09:21:59.628Z,16.83
2019-04-10T09:24:29.993Z,16.48
2019-04-10T09:27:00.527Z,15.88
2019-04-10T09:29:30.004Z,16.10
2019-04-10T09:31:59.398Z,16.67
2019-04-10T09:34:29.030Z,15.17
2019-04-10T09:36:59.816Z,15.00
2019-04-10T09:39:29.593Z,15.27
2019-04-10T09:41:58.991Z,15.60
2019-04-10T09:44:28.337Z,14.33
2019-04-10T09:46:57.977Z,13.80
2019-04-10T09:49:37.666Z,15.37
2019-04-10T09:51:59.175Z,17.53
2019-04-10T09:54:28.565Z,15.33
2019-04-10T09:56:59.056Z,14.97
2019-04-10T09:59:35.917Z,15.83
2019-04-10T10:02:00.531Z,16.32
2019-04-10T10:04:29.871Z,15.83
2019-04-10T10:06:59.832Z,14.13
2019-04-10T10:09:30.602Z,15.57
2019-04-10T10:12:01.082Z,17.23
2019-04-10T10:14:33.256Z,14.68
2019-04-10T10:17:01.955Z,15.43
2019-04-10T10:19:32.196Z,16.47
2019-04-10T10:22:03.605Z,14.10
2019-04-10T10:24:33.002Z,17.07
2019-04-10T10:27:02.359Z,16.00
2019-04-10T10:29:31.729Z,16.47
2019-04-10T10:32:02.479Z,15.43
2019-04-10T10:34:32.436Z,16.20
2019-04-10T10:37:03.623Z,17.77
2019-04-10T10:39:34.926Z,18.07
2019-04-10T10:42:05.494Z,17.87
2019-04-10T10:44:36.189Z,16.67
2019-04-10T10:47:06.245Z,17.57
2019-04-10T10:49:36.624Z,15.50
2019-04-10T10:52:07.072Z,14.50
2019-04-10T10:54:36.981Z,15.90
2019-04-10T10:57:06.969Z,18.63
2019-04-10T10:59:37.742Z,16.57
2019-04-10T11:02:08.554Z,16.57
2019-04-10T11:04:38.021Z,17.27
2019-04-10T11:07:08.547Z,17.65
2019-04-10T11:09:40.110Z,16.33
2019-04-10T11:12:12.177Z,17.23
2019-04-10T11:14:41.697Z,16.83
2019-04-10T11:17:11.909Z,16.00
2019-04-10T11:19:41.707Z,16.30
2019-04-10T11:22:12.597Z,17.27
2019-04-10T11:24:43.422Z,17.87
2019-04-10T11:27:14.297Z,16.93
2019-04-10T11:29:45.403Z,15.08
2019-04-10T11:32:15.500Z,13.40
2019-04-10T11:34:44.930Z,15.57
2019-04-10T11:37:24.126Z,19.13
2019-04-10T11:39:47.633Z,17.00
2019-04-10T11:42:18.318Z,16.30
2019-04-10T11:44:49.331Z,14.43
2019-04-10T11:47:20.023Z,14.80
2019-04-10T11:49:49.985Z,16.37
2019-04-10T11:52:30.744Z,15.50
2019-04-10T11:54:50.469Z,16.53
2019-04-10T11:57:20.560Z,15.13
2019-04-10T11:59:50.952Z,17.13
2019-04-10T12:02:24.838Z,15.25
2019-04-10T12:04:56.989Z,17.00
2019-04-10T12:07:55.105Z,16.43
2019-04-10T12:12:25.908Z,16.33
2019-04-10T12:14:56.217Z,14.23
2019-04-10T12:17:25.690Z,16.70
2019-04-10T12:19:55.034Z,14.67
2019-04-10T12:22:24.409Z,15.07
2019-04-10T12:24:54.352Z,16.90
2019-04-10T12:27:23.744Z,16.53
2019-04-10T12:29:53.205Z,16.63
2019-04-10T12:32:23.036Z,16.07
2019-04-10T12:34:52.812Z,14.63
2019-04-10T12:37:23.565Z,15.43
2019-04-10T12:39:53.052Z,16.63
2019-04-10T12:42:22.418Z,16.07
2019-04-10T12:44:51.799Z,15.53
2019-04-10T12:47:21.767Z,15.73
2019-04-10T12:49:51.914Z,15.43
2019-04-10T12:52:22.716Z,15.70
2019-04-10T12:54:53.190Z,14.80
2019-04-10T12:57:23.115Z,15.17
2019-04-10T12:59:59.395Z,13.40
2019-04-10T13:02:23.763Z,14.63
2019-04-10T13:04:54.618Z,15.73
2019-04-10T13:07:23.973Z,14.93
2019-04-10T13:09:53.939Z,15.50
2019-04-10T13:12:23.464Z,15.03
2019-04-10T13:14:52.865Z,15.93
2019-04-10T13:17:22.683Z,14.70
2019-04-10T13:19:52.086Z,15.45
2019-04-10T13:22:22.295Z,15.13
2019-04-10T13:24:52.098Z,14.43
2019-04-10T13:27:21.514Z,13.57
2019-04-10T13:29:50.887Z,13.80
2019-04-10T13:32:20.856Z,14.73
2019-04-10T13:34:51.274Z,14.45
2019-04-10T13:37:20.693Z,12.33
2019-04-10T13:39:50.968Z,15.67
2019-04-10T13:42:21.038Z,14.30
2019-04-10T13:44:50.844Z,15.30
2019-04-10T13:47:21.704Z,15.67
2019-04-10T13:49:51.233Z,14.30
2019-04-10T13:52:21.391Z,13.87
2019-04-10T13:54:51.056Z,14.40
2019-04-10T13:57:20.520Z,15.83
2019-04-10T13:59:50.102Z,15.37
2019-04-10T14:02:21.511Z,15.40
2019-04-10T14:04:51.358Z,14.63
2019-04-10T14:07:22.015Z,15.77
2019-04-10T14:09:52.482Z,14.50
2019-04-10T14:12:22.940Z,15.03
2019-04-10T14:14:53.060Z,15.73
2019-04-10T14:17:23.679Z,15.53
2019-04-10T14:19:54.133Z,12.47
2019-04-10T14:22:23.896Z,13.88
2019-04-10T14:24:53.759Z,14.47
2019-04-10T14:27:24.781Z,16.57
2019-04-10T14:29:54.599Z,15.83
2019-04-10T14:32:26.016Z,15.40
2019-04-10T14:34:55.443Z,15.83
2019-04-10T14:37:25.488Z,16.27
2019-04-10T14:39:55.766Z,17.10
2019-04-10T14:42:26.549Z,17.17
2019-04-10T14:44:57.165Z,16.50
2019-04-10T14:47:27.702Z,16.60
2019-04-10T14:49:58.032Z,12.68
2019-04-10T14:52:27.608Z,17.50
2019-04-10T14:54:57.010Z,16.90
2019-04-10T14:57:26.647Z,16.93
2019-04-10T14:59:56.182Z,16.00
2019-04-10T15:02:26.371Z,13.30
2019-04-10T15:04:55.840Z,14.28
2019-04-10T15:07:25.216Z,15.07
2019-04-10T15:09:54.599Z,13.87
2019-04-10T15:12:24.696Z,16.47
2019-04-10T15:14:54.419Z,15.80
2019-04-10T15:17:25.155Z,16.67
2019-04-10T15:19:54.638Z,15.63
2019-04-10T15:22:25.418Z,17.13
2019-04-10T15:24:54.926Z,14.60
2019-04-10T15:27:25.018Z,15.57
2019-04-10T15:29:54.724Z,14.70
2019-04-10T15:32:25.269Z,15.30
2019-04-10T15:34:55.797Z,16.30
2019-04-10T15:37:27.150Z,14.77
2019-04-10T15:39:56.526Z,16.77
2019-04-10T15:42:25.935Z,14.90
2019-04-10T15:44:55.292Z,15.73
2019-04-10T15:47:24.942Z,16.17
2019-04-10T15:49:54.670Z,16.77
2019-04-10T15:52:24.039Z,14.85
2019-04-10T15:54:55.336Z,14.50
2019-04-10T15:57:25.340Z,16.00
2019-04-10T15:59:54.733Z,16.60
2019-04-10T16:02:24.100Z,15.33
2019-04-10T16:04:53.481Z,15.87
2019-04-10T16:07:23.125Z,16.03
2019-04-10T16:09:56.171Z,15.60
2019-04-10T16:12:25.333Z,14.47
2019-04-10T16:14:55.060Z,15.50
2019-04-10T16:17:35.009Z,15.63
2019-04-10T16:20:27.357Z,16.05
2019-04-10T16:23:00.896Z,15.95
2019-04-10T16:25:30.279Z,15.30
2019-04-10T16:28:02.025Z,15.30
2019-04-10T16:30:32.992Z,13.68
2019-04-10T16:33:02.891Z,14.60
2019-04-10T16:35:35.237Z,15.17
2019-04-10T16:38:05.669Z,15.63
2019-04-10T16:40:36.586Z,14.73
2019-04-10T16:43:07.858Z,14.90
2019-04-10T16:45:38.540Z,15.27
2019-04-10T16:48:08.655Z,14.80
2019-04-10T16:50:38.435Z,14.60
2019-04-10T16:53:08.015Z,12.07
2019-04-10T16:55:37.382Z,14.23
2019-04-10T16:58:07.602Z,15.50
2019-04-10T17:00:37.701Z,14.23
2019-04-10T17:03:07.626Z,12.37
2019-04-10T17:05:37.657Z,14.97
2019-04-10T17:08:07.770Z,13.30
2019-04-10T17:10:38.606Z,11.77
2019-04-10T17:13:08.925Z,13.37
2019-04-10T17:15:39.866Z,12.33
2019-04-10T17:18:09.347Z,10.43
2019-04-10T17:20:39.040Z,10.80
2019-04-10T17:23:08.483Z,12.10
2019-04-10T17:25:38.158Z,9.73
2019-04-10T17:28:08.211Z,11.57
2019-04-10T17:30:38.095Z,10.65
2019-04-10T17:33:08.842Z,11.25
2019-04-10T17:35:38.323Z,11.23
2019-04-10T17:38:07.709Z,10.93
2019-04-10T17:40:45.816Z,24.13
2019-04-10T17:43:08.571Z,11.67
2019-04-10T17:45:38.714Z,11.43
2019-04-10T17:48:09.387Z,21.43
2019-04-10T17:50:39.492Z,137.70
2019-04-10T17:53:09.279Z,58.13
2019-04-10T17:55:39.874Z,29.07
2019-04-10T17:58:09.645Z,24.93
2019-04-10T18:00:43.697Z,20.53
2019-04-10T18:03:17.603Z,14.00
2019-04-10T18:05:44.668Z,10.67
2019-04-10T18:08:14.649Z,44.33
2019-04-10T18:10:49.536Z,43.55
2019-04-10T18:13:15.587Z,21.07
2019-04-10T18:15:46.220Z,10.30
2019-04-10T18:18:15.905Z,10.10
2019-04-10T18:20:46.320Z,11.70
2019-04-10T18:23:17.538Z,42.30
2019-04-10T18:25:46.927Z,10.80
2019-04-10T18:28:17.191Z,17.97
2019-04-10T18:30:46.685Z,10.85
2019-04-10T18:33:16.126Z,9.70
2019-04-10T18:35:45.511Z,9.00
2019-04-10T18:38:15.726Z,9.60
2019-04-10T18:40:53.085Z,9.53
2019-04-10T18:43:16.356Z,8.57
2019-04-10T18:45:58.360Z,8.80
2019-04-10T18:48:16.877Z,9.40
2019-04-10T18:50:47.273Z,8.43
2019-04-10T18:53:17.146Z,8.97
2019-04-10T18:55:46.834Z,8.87
2019-04-10T18:58:17.841Z,8.50
2019-04-10T19:00:58.823Z,9.00
2019-04-10T19:03:54.680Z,8.33
2019-04-10T19:06:25.114Z,9.30
2019-04-10T19:09:07.716Z,9.18
2019-04-10T19:11:29.060Z,8.83
2019-04-10T19:13:57.335Z,8.70
2019-04-10T19:16:27.945Z,9.13
2019-04-10T19:18:57.373Z,8.53
2019-04-10T19:21:27.236Z,8.50
2019-04-10T19:23:57.358Z,9.57
2019-04-10T19:26:27.415Z,8.87
2019-04-10T19:28:57.128Z,9.07
2019-04-10T19:31:27.932Z,8.63
2019-04-10T19:33:57.597Z,8.80
2019-04-10T19:36:27.942Z,9.23
2019-04-10T19:38:57.895Z,9.87
2019-04-10T19:41:32.851Z,9.07
2019-04-10T19:43:58.931Z,8.90
2019-04-10T19:46:29.285Z,9.10
2019-04-10T19:48:59.675Z,9.90
2019-04-10T19:51:30.211Z,8.93
2019-04-10T19:54:02.651Z,10.07
2019-04-10T19:56:30.978Z,8.50
2019-04-10T19:59:00.754Z,9.77
2019-04-10T20:01:31.433Z,9.23
2019-04-10T20:04:02.067Z,8.77
2019-04-10T20:06:32.218Z,8.97
2019-04-10T20:09:01.649Z,8.27
2019-04-10T20:11:37.568Z,9.60
2019-04-10T20:14:02.131Z,9.47
2019-04-10T20:16:31.501Z,8.87
2019-04-10T20:19:01.348Z,9.85
2019-04-10T20:21:30.822Z,8.55
2019-04-10T20:24:00.653Z,9.00
2019-04-10T20:26:30.072Z,8.63
2019-04-10T20:28:59.441Z,9.33
2019-04-10T20:31:31.139Z,9.37
2019-04-10T20:34:00.627Z,10.50
2019-04-10T20:36:31.059Z,8.87
2019-04-10T20:39:00.996Z,9.30
2019-04-10T20:41:30.848Z,9.10
2019-04-10T20:44:00.234Z,9.03
2019-04-10T20:46:30.513Z,9.17
2019-04-10T20:49:00.605Z,8.90
2019-04-10T20:51:30.509Z,9.30
2019-04-10T20:54:00.213Z,8.67
2019-04-10T20:56:30.551Z,8.53
2019-04-10T20:59:00.107Z,9.43
2019-04-10T21:01:29.602Z,8.77
2019-04-10T21:03:59.255Z,8.57
2019-04-10T21:06:29.626Z,8.33
2019-04-10T21:08:59.154Z,9.40
2019-04-10T21:11:29.226Z,9.07
2019-04-10T21:13:58.979Z,9.13
2019-04-10T21:16:28.429Z,9.37
2019-04-10T21:18:58.182Z,8.67
2019-04-10T21:21:27.554Z,9.30
2019-04-10T21:23:56.932Z,8.67
2019-04-10T21:26:26.310Z,9.70
2019-04-10T21:28:55.833Z,8.30
2019-04-10T21:31:43.442Z,9.47
2019-04-10T21:34:20.021Z,9.03
2019-04-10T21:36:51.222Z,8.58
2019-04-10T21:39:21.220Z,8.63
2019-04-10T21:41:50.872Z,9.13
2019-04-10T21:44:20.429Z,8.85
2019-04-10T21:46:49.835Z,8.23
2019-04-10T21:49:19.842Z,9.33
2019-04-10T21:51:50.017Z,8.75
2019-04-10T21:54:20.447Z,7.90
2019-04-10T21:56:51.407Z,9.33
2019-04-10T21:59:20.832Z,8.90
2019-04-10T22:01:51.444Z,7.67
2019-04-10T22:04:21.041Z,8.10
2019-04-10T22:06:52.094Z,8.10
2019-04-10T22:09:31.799Z,7.50
2019-04-10T22:12:03.728Z,7.72
2019-04-10T22:14:33.551Z,8.50
2019-04-10T22:17:03.748Z,8.40
2019-04-10T22:19:35.326Z,6.97
2019-04-10T22:22:04.299Z,8.33
2019-04-10T22:24:34.509Z,7.77
2019-04-10T22:27:05.105Z,8.53
2019-04-10T22:29:34.793Z,7.00
2019-04-10T22:32:04.337Z,8.27
2019-04-10T22:34:34.245Z,8.10
2019-04-10T22:37:04.272Z,7.80
2019-04-10T22:39:33.636Z,6.93
2019-04-10T22:42:03.360Z,8.27
2019-04-10T22:44:39.187Z,7.87
2019-04-10T22:47:05.087Z,7.97
2019-04-10T22:49:34.961Z,7.45
2019-04-10T22:52:04.736Z,8.37
2019-04-10T22:54:34.608Z,7.70
2019-04-10T22:57:04.739Z,7.53
2019-04-10T22:59:34.862Z,8.70
2019-04-10T23:02:08.830Z,8.13
2019-04-10T23:04:35.364Z,7.70
2019-04-10T23:07:05.919Z,8.05
2019-04-10T23:09:36.074Z,7.30
2019-04-10T23:12:05.987Z,7.90
2019-04-10T23:14:36.521Z,7.30
2019-04-10T23:17:05.899Z,7.83
2019-04-10T23:19:36.322Z,7.30
2019-04-10T23:22:07.643Z,7.70
2019-04-10T23:24:37.962Z,7.17
2019-04-10T23:27:07.386Z,7.13
2019-04-10T23:29:36.736Z,6.67
2019-04-10T23:32:06.108Z,7.50
2019-04-10T23:34:35.473Z,6.63
2019-04-10T23:37:05.082Z,6.13
2019-04-10T23:39:34.477Z,6.87
2019-04-10T23:42:04.883Z,6.93
2019-04-10T23:44:35.965Z,6.60
2019-04-10T23:47:05.420Z,6.00
2019-04-10T23:49:35.360Z,7.03
2019-04-10T23:52:04.967Z,7.10
2019-04-10T23:54:35.261Z,6.83
2019-04-10T23:57:05.192Z,5.93
2019-04-10T23:59:35.020Z,6.20
